Phnom Penh, Cambodia
Current Conditions -  °F | °C
As of 8:30 AM on Friday 19 Dec 2014 (Local Time) from VDPP Reporting Station
Scattered Clouds Scattered Clouds  
Wind Chill: 24°   Ceiling: Unl
Heat Index: 24°   Visibility: 6mi
Dew Point: 18°   Wind: 13mph
Humidity: 69%   Direction: 10°N
Pressure: 29.97"   Gusts: NA
Location:  11.56°N, 104.92°E
Report Text: VDPP 190130Z 01011KT 9999 SCT017 24/18 Q1015
Loading
Personal Weather Stations






























Interactive Weather Map New forecast layout! Learn more

10-Day Weather Forecast

Advertisements
Track Severe Weather on mobile